Time;durP1;ratioP1;P1;durP2;ratioP2;P2;SDS_P1;SDS_P2;PMS_P1;PMS_P2;Temp;Humidity;BMP_temperature;BMP_pressure;BME280_temperature;BME280_humidity;BME280_pressure;Samples;Min_cycle;Max_cycle;Signal;HPM_P1;HPM_P2
2023/10/14 00:00:26;;;;;;;;;;;;;;;;;;5095903;28;19908;-74
2023/10/14 00:02:52;;;;;;;;;;;;;;;;;;5096140;28;19908;-74
2023/10/14 00:05:20;;;;;;;;;;;;;;;;;;5096155;28;19915;-74
2023/10/14 00:07:46;;;;;;;;;;;;;;;;;;5095423;28;20302;-74
2023/10/14 00:10:13;;;;;;;;;;;;;;;;;;5095950;28;19908;-74
2023/10/14 00:12:39;;;;;;;;;;;;;;;;;;5095914;28;19913;-74
2023/10/14 00:15:05;;;;;;;;;;;;;;;;;;5095586;28;19962;-74
2023/10/14 00:17:41;;;;;;;;;;;;;;;;;;5095748;28;19908;-74
2023/10/14 00:20:09;;;;;;;;;;;;;;;;;;5095344;28;20448;-74
2023/10/14 00:22:38;;;;;;;;;;;;;;;;;;5095675;28;20002;-74
2023/10/14 00:25:09;;;;;;;;;;;;;;;;;;5095590;28;19909;-74
2023/10/14 00:27:35;;;;;;;;;;;;;;;;;;5095304;28;19912;-74
2023/10/14 00:30:11;;;;;;;;;;;;;;;;;;5095502;28;19964;-74
2023/10/14 00:32:38;;;;;;;;;;;;;;;;;;5094731;28;19916;-74
2023/10/14 00:35:06;;;;;;;;;;;;;;;;;;5095051;28;20307;-74
2023/10/14 00:37:33;;;;;;;;;;;;;;;;;;5095440;28;19953;-74
2023/10/14 00:40:45;;;;;;;;;;;;;;;;;;5095422;28;20356;-74
2023/10/14 00:42:50;;;;;;;;;;;;;;;;;;5089141;28;19939;-74
2023/10/14 00:45:20;;;;;;;;;;;;;;;;;;5095311;28;19912;-74
2023/10/14 00:47:46;;;;;;;;;;;;;;;;;;5095135;28;20017;-74
2023/10/14 00:50:26;;;;;;;;;;;;;;;;;;5094791;28;19908;-74
2023/10/14 00:52:57;;;;;;;;;;;;;;;;;;5095448;28;19916;-73
2023/10/14 00:55:26;;;;;;;;;;;;;;;;;;5094699;28;20034;-74
2023/10/14 00:57:55;;;;;;;;;;;;;;;;;;5095026;28;19915;-72
2023/10/14 01:00:33;;;;;;;;;;;;;;;;;;5095552;28;19962;-72
2023/10/14 01:03:01;;;;;;;;;;;;;;;;;;5094525;28;19959;-73
2023/10/14 01:05:29;;;;;;;;;;;;;;;;;;5095099;28;20299;-73
2023/10/14 01:07:58;;;;;;;;;;;;;;;;;;5094557;28;19920;-74
2023/10/14 01:10:25;;;;;;;;;;;;;;;;;;5094549;28;20400;-72
2023/10/14 01:12:55;;;;;;;;;;;;;;;;;;5094653;28;20364;-74
2023/10/14 01:15:21;;;;;;;;;;;;;;;;;;5095050;28;19908;-74
2023/10/14 01:17:47;;;;;;;;;;;;;;;;;;5094340;28;19912;-72
2023/10/14 01:22:43;;;;;;;;;;;;;;;;;;5095036;28;19915;-72
2023/10/14 01:25:15;;;;;;;;;;;;;;;;;;5094130;28;19912;-72
2023/10/14 01:27:44;;;;;;;;;;;;;;;;;;5094726;28;20413;-71
2023/10/14 01:30:18;;;;;;;;;;;;;;;;;;5094055;28;19930;-72
2023/10/14 01:35:22;;;;;;;;;;;;;;;;;;5094655;28;19908;-72
2023/10/14 01:37:48;;;;;;;;;;;;;;;;;;5094005;28;19954;-72
2023/10/14 01:42:49;;;;;;;;;;;;;;;;;;5094441;28;19913;-72
2023/10/14 01:45:20;;;;;;;;;;;;;;;;;;5093858;28;19908;-72
2023/10/14 01:47:50;;;;;;;;;;;;;;;;;;5094193;28;19927;-72
2023/10/14 01:50:16;;;;;;;;;;;;;;;;;;5094120;28;20372;-72
2023/10/14 01:52:42;;;;;;;;;;;;;;;;;;5093713;28;19930;-72
2023/10/14 01:55:09;;;;;;;;;;;;;;;;;;5094080;28;20372;-72
2023/10/14 01:57:36;;;;;;;;;;;;;;;;;;5094095;28;19915;-71
2023/10/14 02:00:12;;;;;;;;;;;;;;;;;;5093677;28;19909;-72
2023/10/14 02:02:48;;;;;;;;;;;;;;;;;;5094105;28;19935;-74
2023/10/14 02:05:15;;;;;;;;;;;;;;;;;;5094311;28;19954;-74
2023/10/14 02:07:41;;;;;;;;;;;;;;;;;;5093376;28;20425;-73
2023/10/14 02:10:12;;;;;;;;;;;;;;;;;;5094244;28;19908;-73
2023/10/14 02:12:38;;;;;;;;;;;;;;;;;;5093595;28;19919;-73
2023/10/14 02:15:08;;;;;;;;;;;;;;;;;;5093912;28;19908;-73
2023/10/14 02:17:34;;;;;;;;;;;;;;;;;;5093914;28;20357;-73
2023/10/14 02:20:19;;;;;;;;;;;;;;;;;;5092283;28;20033;-73
2023/10/14 02:22:45;;;;;;;;;;;;;;;;;;5094127;28;20304;-73
2023/10/14 02:25:15;;;;;;;;;;;;;;;;;;5094339;28;19908;-73
2023/10/14 02:27:43;;;;;;;;;;;;;;;;;;5093321;28;20295;-73
2023/10/14 02:30:08;;;;;;;;;;;;;;;;;;5093794;28;19913;-73
2023/10/14 02:32:34;;;;;;;;;;;;;;;;;;5093688;28;19930;-73
2023/10/14 02:35:00;;;;;;;;;;;;;;;;;;5093289;28;19908;-73
2023/10/14 02:37:26;;;;;;;;;;;;;;;;;;5093732;28;20322;-74
2023/10/14 02:39:52;;;;;;;;;;;;;;;;;;5093990;28;19908;-73
2023/10/14 02:42:18;;;;;;;;;;;;;;;;;;5093480;28;19919;-73
2023/10/14 02:44:44;;;;;;;;;;;;;;;;;;5093817;28;19947;-73
2023/10/14 02:47:10;;;;;;;;;;;;;;;;;;5093522;28;19912;-73
2023/10/14 02:49:37;;;;;;;;;;;;;;;;;;5093250;28;20268;-73
2023/10/14 02:52:08;;;;;;;;;;;;;;;;;;5093649;28;19915;-73
2023/10/14 02:54:34;;;;;;;;;;;;;;;;;;5094259;28;19908;-73
2023/10/14 02:57:00;;;;;;;;;;;;;;;;;;5097394;28;19915;-73
2023/10/14 02:59:38;;;;;;;;;;;;;;;;;;5097314;28;20284;-73
2023/10/14 03:04:48;;;;;;;;;;;;;;;;;;5097246;28;19919;-74
2023/10/14 03:08:16;;;;;;;;;;;;;;;;;;5096966;28;19908;-74
2023/10/14 03:12:39;;;;;;;;;;;;;;;;;;5097376;28;20050;-73
2023/10/14 03:15:05;;;;;;;;;;;;;;;;;;5097073;28;19908;-73
2023/10/14 03:17:41;;;;;;;;;;;;;;;;;;5096530;28;19916;-73
2023/10/14 03:20:34;;;;;;;;;;;;;;;;;;5096932;28;19989;-74
2023/10/14 03:22:53;;;;;;;;;;;;;;;;;;5096414;28;19908;-74
2023/10/14 03:25:23;;;;;;;;;;;;;;;;;;5096870;28;19908;-73
2023/10/14 03:27:49;;;;;;;;;;;;;;;;;;5096742;28;19920;-73
2023/10/14 03:30:17;;;;;;;;;;;;;;;;;;5096396;28;19918;-73
2023/10/14 03:32:42;;;;;;;;;;;;;;;;;;5096683;28;19908;-73
2023/10/14 03:35:12;;;;;;;;;;;;;;;;;;5096672;28;19912;-73
2023/10/14 03:37:52;;;;;;;;;;;;;;;;;;5096519;28;19915;-73
2023/10/14 03:43:11;;;;;;;;;;;;;;;;;;5096873;28;19985;-73
2023/10/14 03:45:56;;;;;;;;;;;;;;;;;;5096087;28;20279;-73
2023/10/14 03:48:35;;;;;;;;;;;;;;;;;;5096375;28;20007;-73
2023/10/14 03:51:04;;;;;;;;;;;;;;;;;;5096027;28;19919;-73
2023/10/14 03:53:30;;;;;;;;;;;;;;;;;;5096297;28;20023;-73
2023/10/14 03:55:57;;;;;;;;;;;;;;;;;;5096243;28;19908;-73
2023/10/14 03:58:23;;;;;;;;;;;;;;;;;;5095835;28;19915;-73
2023/10/14 04:00:50;;;;;;;;;;;;;;;;;;5096187;28;19908;-73
2023/10/14 04:03:33;;;;;;;;;;;;;;;;;;5096045;28;19912;-73
2023/10/14 04:06:01;;;;;;;;;;;;;;;;;;5095672;28;19908;-73
2023/10/14 04:08:39;;;;;;;;;;;;;;;;;;5095676;28;19920;-73
2023/10/14 04:11:13;;;;;;;;;;;;;;;;;;5096375;28;19912;-73
2023/10/14 04:13:40;;;;;;;;;;;;;;;;;;5095526;28;19947;-73
2023/10/14 04:16:12;;;;;;;;;;;;;;;;;;5095897;28;19933;-73
2023/10/14 04:18:40;;;;;;;;;;;;;;;;;;5095738;28;19908;-73
2023/10/14 04:21:22;;;;;;;;;;;;;;;;;;5095423;28;19908;-73
2023/10/14 04:26:36;;;;;;;;;;;;;;;;;;5095256;28;19915;-73
2023/10/14 04:29:03;;;;;;;;;;;;;;;;;;5095518;28;19916;-73
2023/10/14 04:31:39;;;;;;;;;;;;;;;;;;5095468;28;19912;-73
2023/10/14 04:34:05;;;;;;;;;;;;;;;;;;5095110;28;20387;-73
2023/10/14 04:36:42;;;;;;;;;;;;;;;;;;5095445;28;20382;-73
2023/10/14 04:39:14;;;;;;;;;;;;;;;;;;5095819;28;19912;-73
2023/10/14 04:41:55;;;;;;;;;;;;;;;;;;5095053;28;20383;-73
2023/10/14 04:44:22;;;;;;;;;;;;;;;;;;5095478;28;19922;-73
2023/10/14 04:47:01;;;;;;;;;;;;;;;;;;5095201;28;19908;-73
2023/10/14 04:49:37;;;;;;;;;;;;;;;;;;5094739;28;20375;-73
2023/10/14 04:52:05;;;;;;;;;;;;;;;;;;5095291;28;19909;-73
2023/10/14 04:54:34;;;;;;;;;;;;;;;;;;5094714;28;20010;-73
2023/10/14 04:57:00;;;;;;;;;;;;;;;;;;5094961;28;19915;-73
2023/10/14 04:59:27;;;;;;;;;;;;;;;;;;5094969;28;20276;-73
2023/10/14 05:01:55;;;;;;;;;;;;;;;;;;5094546;28;19987;-73
2023/10/14 05:04:22;;;;;;;;;;;;;;;;;;5094929;28;19908;-74
2023/10/14 05:06:48;;;;;;;;;;;;;;;;;;5094784;28;19908;-73
2023/10/14 05:12:17;;;;;;;;;;;;;;;;;;5071524;28;19908;-73
2023/10/14 05:14:43;;;;;;;;;;;;;;;;;;5094687;28;19934;-73
2023/10/14 05:19:47;;;;;;;;;;;;;;;;;;5094713;28;20287;-74
2023/10/14 05:22:59;;;;;;;;;;;;;;;;;;5094742;28;19915;-73
2023/10/14 05:25:04;;;;;;;;;;;;;;;;;;5087006;28;19918;-73
2023/10/14 05:27:46;;;;;;;;;;;;;;;;;;5094690;28;19908;-73
2023/10/14 05:30:15;;;;;;;;;;;;;;;;;;5094177;28;19912;-73
2023/10/14 05:32:43;;;;;;;;;;;;;;;;;;5094405;28;19908;-73
2023/10/14 05:35:09;;;;;;;;;;;;;;;;;;5094384;28;20483;-73
2023/10/14 05:37:36;;;;;;;;;;;;;;;;;;5093932;28;19965;-73
2023/10/14 05:40:02;;;;;;;;;;;;;;;;;;5094354;28;20049;-73
2023/10/14 05:42:27;;;;;;;;;;;;;;;;;;5094410;28;20362;-73
2023/10/14 05:45:02;;;;;;;;;;;;;;;;;;5093874;28;20257;-73
2023/10/14 05:47:28;;;;;;;;;;;;;;;;;;5094101;28;19908;-73
2023/10/14 05:49:54;;;;;;;;;;;;;;;;;;5092908;28;19915;-73
2023/10/14 05:52:26;;;;;;;;;;;;;;;;;;5093751;28;20368;-73
2023/10/14 05:54:52;;;;;;;;;;;;;;;;;;5094158;28;19912;-74
2023/10/14 05:57:18;;;;;;;;;;;;;;;;;;5094147;28;19916;-73
2023/10/14 05:59:44;;;;;;;;;;;;;;;;;;5093629;28;20000;-73
2023/10/14 06:02:12;;;;;;;;;;;;;;;;;;5094012;28;19939;-73
2023/10/14 06:04:41;;;;;;;;;;;;;;;;;;5093837;28;20011;-74
2023/10/14 06:07:08;;;;;;;;;;;;;;;;;;5093749;28;19915;-73
2023/10/14 06:09:34;;;;;;;;;;;;;;;;;;5093976;28;19923;-73
2023/10/14 06:12:00;;;;;;;;;;;;;;;;;;5093577;28;20280;-74
2023/10/14 06:14:26;;;;;;;;;;;;;;;;;;5093903;28;20007;-74
2023/10/14 06:16:52;;;;;;;;;;;;;;;;;;5093856;28;19951;-74
2023/10/14 06:19:18;;;;;;;;;;;;;;;;;;5093541;28;19919;-74
2023/10/14 06:21:44;;;;;;;;;;;;;;;;;;5093793;28;19931;-74
2023/10/14 06:24:12;;;;;;;;;;;;;;;;;;5093808;28;19915;-74
2023/10/14 06:26:38;;;;;;;;;;;;;;;;;;5093487;28;19912;-74
2023/10/14 06:29:05;;;;;;;;;;;;;;;;;;5093883;28;19923;-74
2023/10/14 06:31:31;;;;;;;;;;;;;;;;;;5097844;28;19909;-74
2023/10/14 06:33:57;;;;;;;;;;;;;;;;;;5097472;28;20283;-74
2023/10/14 06:36:26;;;;;;;;;;;;;;;;;;5097786;28;19909;-75
2023/10/14 06:38:52;;;;;;;;;;;;;;;;;;5097873;28;20345;-74
2023/10/14 06:41:18;;;;;;;;;;;;;;;;;;5097248;28;19951;-74
2023/10/14 06:43:44;;;;;;;;;;;;;;;;;;5098167;28;20337;-74
2023/10/14 06:46:11;;;;;;;;;;;;;;;;;;5097538;28;20382;-74
2023/10/14 06:48:38;;;;;;;;;;;;;;;;;;5096986;28;19923;-74
2023/10/14 06:51:04;;;;;;;;;;;;;;;;;;5097488;28;19969;-74
2023/10/14 06:53:30;;;;;;;;;;;;;;;;;;5097456;28;19936;-74
2023/10/14 06:55:57;;;;;;;;;;;;;;;;;;5097055;28;19951;-75
2023/10/14 06:58:23;;;;;;;;;;;;;;;;;;5097369;28;19957;-74
2023/10/14 07:00:49;;;;;;;;;;;;;;;;;;5096935;28;19954;-74
2023/10/14 07:03:15;;;;;;;;;;;;;;;;;;5097248;28;19947;-74
2023/10/14 07:05:46;;;;;;;;;;;;;;;;;;5097220;28;19908;-75
2023/10/14 07:08:12;;;;;;;;;;;;;;;;;;5096819;28;20018;-75
2023/10/14 07:13:10;;;;;;;;;;;;;;;;;;5091501;27;20368;-74
2023/10/14 07:15:36;;;;;;;;;;;;;;;;;;5091118;28;19913;-74
2023/10/14 07:18:02;;;;;;;;;;;;;;;;;;5091412;28;20253;-75
2023/10/14 07:20:31;;;;;;;;;;;;;;;;;;5091420;28;19962;-75
2023/10/14 07:22:58;;;;;;;;;;;;;;;;;;5091108;28;19912;-76
2023/10/14 07:25:24;;;;;;;;;;;;;;;;;;5091177;28;20307;-75
2023/10/14 07:27:51;;;;;;;;;;;;;;;;;;5091158;28;19912;-76
2023/10/14 07:30:17;;;;;;;;;;;;;;;;;;5090693;28;19908;-75
2023/10/14 07:33:43;;;;;;;;;;;;;;;;;;5111805;27;19913;-76
2023/10/14 07:36:11;;;;;;;;;;;;;;;;;;5111557;28;19912;-76
2023/10/14 07:38:37;;;;;;;;;;;;;;;;;;5111604;28;19962;-76
2023/10/14 07:41:04;;;;;;;;;;;;;;;;;;5111615;28;19908;-76
2023/10/14 07:43:33;;;;;;;;;;;;;;;;;;5111215;28;19965;-76
2023/10/14 07:46:00;;;;;;;;;;;;;;;;;;5111651;28;19915;-76
2023/10/14 07:48:26;;;;;;;;;;;;;;;;;;5111490;28;19908;-76
2023/10/14 07:50:56;;;;;;;;;;;;;;;;;;5111343;28;20383;-76
2023/10/14 07:53:25;;;;;;;;;;;;;;;;;;5111784;28;19916;-76
2023/10/14 07:55:51;;;;;;;;;;;;;;;;;;5111809;28;20003;-76
2023/10/14 07:58:17;;;;;;;;;;;;;;;;;;5110833;28;20351;-76
2023/10/14 08:00:49;;;;;;;;;;;;;;;;;;5111182;28;19954;-76
2023/10/14 08:03:16;;;;;;;;;;;;;;;;;;5111382;28;19915;-76
2023/10/14 08:06:41;;;;;;;;;;;;;;;;;;5111875;27;19912;-74
2023/10/14 08:10:28;;;;;;;;;;;;;;;;;;5092205;28;19916;-73
2023/10/14 08:12:54;;;;;;;;;;;;;;;;;;5091048;28;19912;-76
2023/10/14 08:15:20;;;;;;;;;;;;;;;;;;5091294;28;20003;-76
2023/10/14 08:17:48;;;;;;;;;;;;;;;;;;5091287;28;19908;-76
2023/10/14 08:20:16;;;;;;;;;;;;;;;;;;5090867;28;20313;-76
2023/10/14 08:22:44;;;;;;;;;;;;;;;;;;5091788;28;19952;-76
2023/10/14 08:25:10;;;;;;;;;;;;;;;;;;5090847;28;19908;-76
2023/10/14 08:27:36;;;;;;;;;;;;;;;;;;5091216;28;20356;-76
2023/10/14 08:30:10;;;;;;;;;;;;;;;;;;5090922;28;20464;-77
2023/10/14 08:32:37;;;;;;;;;;;;;;;;;;5090599;28;19909;-76
2023/10/14 08:35:08;;;;;;;;;;;;;;;;;;5090903;28;19923;-77
2023/10/14 08:37:34;;;;;;;;;;;;;;;;;;5090996;28;20045;-76
2023/10/14 08:40:00;;;;;;;;;;;;;;;;;;5090360;28;19915;-76
2023/10/14 08:42:26;;;;;;;;;;;;;;;;;;5090820;28;19975;-77
2023/10/14 08:44:52;;;;;;;;;;;;;;;;;;5090696;28;19908;-76
2023/10/14 08:47:18;;;;;;;;;;;;;;;;;;5090411;28;19955;-75
2023/10/14 08:49:44;;;;;;;;;;;;;;;;;;5090595;28;20015;-75
2023/10/14 08:52:10;;;;;;;;;;;;;;;;;;5090536;28;19915;-75
2023/10/14 08:54:37;;;;;;;;;;;;;;;;;;5090123;28;19944;-75
2023/10/14 08:57:03;;;;;;;;;;;;;;;;;;5090374;28;19908;-76
2023/10/14 08:59:29;;;;;;;;;;;;;;;;;;5090473;28;19914;-76
2023/10/14 09:01:56;;;;;;;;;;;;;;;;;;5090266;28;20372;-75
2023/10/14 09:04:22;;;;;;;;;;;;;;;;;;5090259;28;19916;-76
2023/10/14 09:06:52;;;;;;;;;;;;;;;;;;5090445;28;19909;-76
2023/10/14 09:09:23;;;;;;;;;;;;;;;;;;5100586;28;19923;-76
2023/10/14 09:11:51;;;;;;;;;;;;;;;;;;5110954;28;19908;-76
2023/10/14 09:14:17;;;;;;;;;;;;;;;;;;5110485;28;19908;-76
2023/10/14 09:16:43;;;;;;;;;;;;;;;;;;5110126;28;20470;-76
2023/10/14 09:19:11;;;;;;;;;;;;;;;;;;5110514;28;20037;-76
2023/10/14 09:21:37;;;;;;;;;;;;;;;;;;5097482;28;19919;-76
2023/10/14 09:24:07;;;;;;;;;;;;;;;;;;5096759;28;19908;-76
2023/10/14 09:26:33;;;;;;;;;;;;;;;;;;5096620;28;19908;-76
2023/10/14 09:28:59;;;;;;;;;;;;;;;;;;5077979;28;19922;-76
2023/10/14 09:31:25;;;;;;;;;;;;;;;;;;5096720;28;19908;-76
2023/10/14 09:33:52;;;;;;;;;;;;;;;;;;5096601;28;19916;-76
2023/10/14 09:36:18;;;;;;;;;;;;;;;;;;5096352;28;19908;-77
2023/10/14 09:38:44;;;;;;;;;;;;;;;;;;5096565;28;19930;-77
2023/10/14 09:41:10;;;;;;;;;;;;;;;;;;5096514;28;19962;-77
2023/10/14 09:43:39;;;;;;;;;;;;;;;;;;5096188;28;19908;-77
2023/10/14 09:46:08;;;;;;;;;;;;;;;;;;5096402;28;20016;-77
2023/10/14 09:48:34;;;;;;;;;;;;;;;;;;5096502;28;20372;-77
2023/10/14 09:51:00;;;;;;;;;;;;;;;;;;5095924;28;19921;-77
2023/10/14 09:53:26;;;;;;;;;;;;;;;;;;5096187;28;19915;-77
2023/10/14 09:55:52;;;;;;;;;;;;;;;;;;5096102;28;19908;-77
2023/10/14 09:58:18;;;;;;;;;;;;;;;;;;5095750;28;19915;-77
2023/10/14 10:00:44;;;;;;;;;;;;;;;;;;5096113;28;19947;-77
2023/10/14 10:03:10;;;;;;;;;;;;;;;;;;5095983;28;19912;-78
2023/10/14 10:05:39;;;;;;;;;;;;;;;;;;5095606;28;19908;-77
2023/10/14 10:08:04;;;;;;;;;;;;;;;;;;5095747;28;19912;-77
2023/10/14 10:10:30;;;;;;;;;;;;;;;;;;5095902;28;20257;-77
2023/10/14 10:12:56;;;;;;;;;;;;;;;;;;5095399;28;20257;-77
2023/10/14 10:15:22;;;;;;;;;;;;;;;;;;5095784;28;20340;-78
2023/10/14 10:17:50;;;;;;;;;;;;;;;;;;5095726;28;20280;-77
2023/10/14 10:20:25;;;;;;;;;;;;;;;;;;5095758;28;19916;-77
2023/10/14 10:22:51;;;;;;;;;;;;;;;;;;5096237;28;19904;-77
2023/10/14 10:25:17;;;;;;;;;;;;;;;;;;5095241;28;19912;-77
2023/10/14 10:27:43;;;;;;;;;;;;;;;;;;5095586;28;19912;-77
2023/10/14 10:30:11;;;;;;;;;;;;;;;;;;5095818;28;19916;-77
2023/10/14 10:32:38;;;;;;;;;;;;;;;;;;5094268;28;19908;-77
2023/10/14 10:35:04;;;;;;;;;;;;;;;;;;5095448;28;19930;-77
2023/10/14 10:37:30;;;;;;;;;;;;;;;;;;5095383;28;19915;-78
2023/10/14 10:39:56;;;;;;;;;;;;;;;;;;5094840;28;19908;-78
2023/10/14 10:42:22;;;;;;;;;;;;;;;;;;5095325;28;20314;-77
2023/10/14 10:44:48;;;;;;;;;;;;;;;;;;5095254;28;19912;-77
2023/10/14 10:47:15;;;;;;;;;;;;;;;;;;5094816;28;19954;-78
2023/10/14 10:49:41;;;;;;;;;;;;;;;;;;5076863;28;19938;-78
2023/10/14 10:52:07;;;;;;;;;;;;;;;;;;5095045;28;19908;-78
2023/10/14 10:54:33;;;;;;;;;;;;;;;;;;5094700;28;19908;-78
2023/10/14 10:57:02;;;;;;;;;;;;;;;;;;5095024;28;20275;-78
2023/10/14 10:59:28;;;;;;;;;;;;;;;;;;5094972;28;19985;-78
2023/10/14 11:01:54;;;;;;;;;;;;;;;;;;5094610;28;20440;-78
2023/10/14 11:04:20;;;;;;;;;;;;;;;;;;5094837;28;19914;-78
2023/10/14 11:06:46;;;;;;;;;;;;;;;;;;5094999;28;19915;-78
2023/10/14 11:09:13;;;;;;;;;;;;;;;;;;5094065;28;19927;-78
2023/10/14 11:11:39;;;;;;;;;;;;;;;;;;5095076;28;19908;-78
2023/10/14 11:14:05;;;;;;;;;;;;;;;;;;5094331;28;19919;-78
2023/10/14 11:16:31;;;;;;;;;;;;;;;;;;5094715;28;19916;-78
2023/10/14 11:18:57;;;;;;;;;;;;;;;;;;5094716;28;19952;-78
2023/10/14 11:21:27;;;;;;;;;;;;;;;;;;5094181;28;19908;-78
2023/10/14 11:23:53;;;;;;;;;;;;;;;;;;5095047;28;19915;-78
2023/10/14 11:26:19;;;;;;;;;;;;;;;;;;5094492;28;19908;-78
2023/10/14 11:28:45;;;;;;;;;;;;;;;;;;5094056;28;20314;-78
2023/10/14 11:31:11;;;;;;;;;;;;;;;;;;5094314;28;19957;-78
2023/10/14 11:33:37;;;;;;;;;;;;;;;;;;5094406;28;20269;-78
2023/10/14 11:36:03;;;;;;;;;;;;;;;;;;5093907;28;20272;-78
2023/10/14 11:38:29;;;;;;;;;;;;;;;;;;5094389;28;19915;-78
2023/10/14 11:40:55;;;;;;;;;;;;;;;;;;5094195;28;20003;-78
2023/10/14 11:43:21;;;;;;;;;;;;;;;;;;5093566;28;19953;-78
2023/10/14 11:45:47;;;;;;;;;;;;;;;;;;5094414;28;19908;-78
2023/10/14 11:48:13;;;;;;;;;;;;;;;;;;5094011;28;20376;-77
2023/10/14 11:50:39;;;;;;;;;;;;;;;;;;5093915;28;20372;-78
2023/10/14 11:53:05;;;;;;;;;;;;;;;;;;5094129;28;20396;-78
2023/10/14 11:55:30;;;;;;;;;;;;;;;;;;5094087;28;19908;-78
2023/10/14 11:57:58;;;;;;;;;;;;;;;;;;5093688;28;19914;-78
2023/10/14 12:00:24;;;;;;;;;;;;;;;;;;5094379;28;19939;-78
2023/10/14 12:02:50;;;;;;;;;;;;;;;;;;5094040;28;19950;-78
2023/10/14 12:05:16;;;;;;;;;;;;;;;;;;5093799;28;19912;-78
2023/10/14 12:07:43;;;;;;;;;;;;;;;;;;5093922;28;20315;-78
2023/10/14 12:10:09;;;;;;;;;;;;;;;;;;5093564;28;19964;-77
2023/10/14 12:12:37;;;;;;;;;;;;;;;;;;5094059;28;19994;-78
2023/10/14 12:15:05;;;;;;;;;;;;;;;;;;5093838;28;20360;-78
2023/10/14 12:17:31;;;;;;;;;;;;;;;;;;5075316;28;20409;-78
2023/10/14 12:19:57;;;;;;;;;;;;;;;;;;5093841;28;19951;-78
2023/10/14 12:22:24;;;;;;;;;;;;;;;;;;5093769;28;19940;-78
2023/10/14 12:24:50;;;;;;;;;;;;;;;;;;5093416;28;19947;-78
2023/10/14 12:27:18;;;;;;;;;;;;;;;;;;5094100;28;19908;-78
2023/10/14 12:29:48;;;;;;;;;;;;;;;;;;5075692;28;19920;-78
2023/10/14 12:32:17;;;;;;;;;;;;;;;;;;5093459;28;20372;-78
2023/10/14 12:34:43;;;;;;;;;;;;;;;;;;5093985;28;19930;-78
2023/10/14 12:37:17;;;;;;;;;;;;;;;;;;5093783;28;20384;-78
2023/10/14 12:39:44;;;;;;;;;;;;;;;;;;5093654;28;20280;-78
2023/10/14 12:42:16;;;;;;;;;;;;;;;;;;5093702;28;19908;-78
2023/10/14 12:44:42;;;;;;;;;;;;;;;;;;5093607;28;20347;-78
2023/10/14 12:47:11;;;;;;;;;;;;;;;;;;5093325;28;19912;-78
2023/10/14 12:49:37;;;;;;;;;;;;;;;;;;5093460;28;20283;-78
2023/10/14 12:52:08;;;;;;;;;;;;;;;;;;5093530;28;20430;-78
2023/10/14 12:54:34;;;;;;;;;;;;;;;;;;5093183;28;19908;-78
2023/10/14 12:57:03;;;;;;;;;;;;;;;;;;5096834;28;19908;-78
2023/10/14 12:59:31;;;;;;;;;;;;;;;;;;5096994;28;19995;-79
2023/10/14 13:02:00;;;;;;;;;;;;;;;;;;5097365;28;19916;-78
2023/10/14 13:04:27;;;;;;;;;;;;;;;;;;5097423;28;19931;-78
2023/10/14 13:06:53;;;;;;;;;;;;;;;;;;5097111;28;19954;-78
2023/10/14 13:09:27;;;;;;;;;;;;;;;;;;5096836;28;19920;-79
2023/10/14 13:11:55;;;;;;;;;;;;;;;;;;5097678;28;20402;-78
2023/10/14 13:14:27;;;;;;;;;;;;;;;;;;5096689;28;19915;-78
2023/10/14 13:16:53;;;;;;;;;;;;;;;;;;5097045;28;19915;-78
2023/10/14 13:19:19;;;;;;;;;;;;;;;;;;5096977;28;20280;-78
2023/10/14 13:21:45;;;;;;;;;;;;;;;;;;5096481;28;19908;-78
2023/10/14 13:24:11;;;;;;;;;;;;;;;;;;5097084;28;19915;-78
2023/10/14 13:26:37;;;;;;;;;;;;;;;;;;5097137;28;19932;-78
2023/10/14 13:29:06;;;;;;;;;;;;;;;;;;5096311;28;19916;-78
2023/10/14 13:31:32;;;;;;;;;;;;;;;;;;5096772;28;20261;-78
2023/10/14 13:33:58;;;;;;;;;;;;;;;;;;5096799;28;19919;-78
2023/10/14 13:36:24;;;;;;;;;;;;;;;;;;5096228;28;19914;-78
2023/10/14 13:38:50;;;;;;;;;;;;;;;;;;5096584;28;19908;-79
2023/10/14 13:41:16;;;;;;;;;;;;;;;;;;5096814;28;19908;-78
2023/10/14 13:43:42;;;;;;;;;;;;;;;;;;5096177;28;19916;-78
2023/10/14 13:46:08;;;;;;;;;;;;;;;;;;5096651;28;20261;-78
2023/10/14 13:48:34;;;;;;;;;;;;;;;;;;5096301;28;19962;-78
2023/10/14 13:51:01;;;;;;;;;;;;;;;;;;5095995;28;20356;-78
2023/10/14 13:53:32;;;;;;;;;;;;;;;;;;5096370;28;19995;-78
2023/10/14 13:55:58;;;;;;;;;;;;;;;;;;5095860;28;20391;-79
2023/10/14 13:58:24;;;;;;;;;;;;;;;;;;5096149;28;19908;-79
2023/10/14 14:00:50;;;;;;;;;;;;;;;;;;5096117;28;19959;-78
2023/10/14 14:03:16;;;;;;;;;;;;;;;;;;5095631;28;19915;-78
2023/10/14 14:05:42;;;;;;;;;;;;;;;;;;5096211;28;19908;-79
2023/10/14 14:08:08;;;;;;;;;;;;;;;;;;5095905;28;19919;-78
2023/10/14 14:10:34;;;;;;;;;;;;;;;;;;5095701;28;19916;-79
2023/10/14 14:13:02;;;;;;;;;;;;;;;;;;5095943;28;19915;-79
2023/10/14 14:15:28;;;;;;;;;;;;;;;;;;5096179;28;19912;-79
2023/10/14 14:17:54;;;;;;;;;;;;;;;;;;5095652;28;19940;-78
2023/10/14 14:20:20;;;;;;;;;;;;;;;;;;5095987;28;19908;-78
2023/10/14 14:22:46;;;;;;;;;;;;;;;;;;5095875;28;19912;-78
2023/10/14 14:25:12;;;;;;;;;;;;;;;;;;5095441;28;19908;-78
2023/10/14 14:27:38;;;;;;;;;;;;;;;;;;5095869;28;19919;-78
2023/10/14 14:30:07;;;;;;;;;;;;;;;;;;5095586;28;19916;-78
2023/10/14 14:32:36;;;;;;;;;;;;;;;;;;5095287;28;19915;-78
2023/10/14 14:35:02;;;;;;;;;;;;;;;;;;5095656;28;20065;-78
2023/10/14 14:37:32;;;;;;;;;;;;;;;;;;5095769;28;20401;-78
2023/10/14 14:39:58;;;;;;;;;;;;;;;;;;5095000;28;19912;-78
2023/10/14 14:42:26;;;;;;;;;;;;;;;;;;5095359;28;20272;-78
2023/10/14 14:44:53;;;;;;;;;;;;;;;;;;5095364;28;20360;-78
2023/10/14 14:47:19;;;;;;;;;;;;;;;;;;5095520;28;19908;-78
2023/10/14 14:49:45;;;;;;;;;;;;;;;;;;5095126;28;19924;-77
2023/10/14 14:52:11;;;;;;;;;;;;;;;;;;5094845;28;19955;-78
2023/10/14 14:54:40;;;;;;;;;;;;;;;;;;5095133;28;19969;-78
2023/10/14 14:57:06;;;;;;;;;;;;;;;;;;5095115;28;20017;-77
2023/10/14 14:59:34;;;;;;;;;;;;;;;;;;5094603;28;19908;-78
2023/10/14 15:02:01;;;;;;;;;;;;;;;;;;5094945;28;19961;-77
2023/10/14 15:04:27;;;;;;;;;;;;;;;;;;5094924;28;19912;-78
2023/10/14 15:06:55;;;;;;;;;;;;;;;;;;5094462;28;20390;-77
2023/10/14 15:09:21;;;;;;;;;;;;;;;;;;5094558;28;19920;-77
2023/10/14 15:11:47;;;;;;;;;;;;;;;;;;5094773;28;19915;-77
2023/10/14 15:14:16;;;;;;;;;;;;;;;;;;5094324;28;19908;-77
2023/10/14 15:16:42;;;;;;;;;;;;;;;;;;5094767;28;19908;-77
2023/10/14 15:19:08;;;;;;;;;;;;;;;;;;5094229;28;19957;-77
2023/10/14 15:21:34;;;;;;;;;;;;;;;;;;5076077;28;20337;-76
2023/10/14 15:24:00;;;;;;;;;;;;;;;;;;5094671;28;19908;-76
2023/10/14 15:26:26;;;;;;;;;;;;;;;;;;5094572;28;20370;-77
2023/10/14 15:28:53;;;;;;;;;;;;;;;;;;5094085;28;19999;-77
2023/10/14 15:31:19;;;;;;;;;;;;;;;;;;5094785;28;19912;-76
2023/10/14 15:33:46;;;;;;;;;;;;;;;;;;5094638;28;19915;-76
2023/10/14 15:36:15;;;;;;;;;;;;;;;;;;5093972;28;20376;-76
2023/10/14 15:38:41;;;;;;;;;;;;;;;;;;5094345;28;19908;-76
2023/10/14 15:41:07;;;;;;;;;;;;;;;;;;5094256;28;19915;-76
2023/10/14 15:43:33;;;;;;;;;;;;;;;;;;5094077;28;20015;-76
2023/10/14 15:46:01;;;;;;;;;;;;;;;;;;5094217;28;19908;-76
2023/10/14 15:48:31;;;;;;;;;;;;;;;;;;5093742;28;20002;-77
2023/10/14 15:50:57;;;;;;;;;;;;;;;;;;5094806;28;19961;-77
2023/10/14 15:53:23;;;;;;;;;;;;;;;;;;5094057;28;19915;-77
2023/10/14 15:55:50;;;;;;;;;;;;;;;;;;5075644;28;19908;-76
2023/10/14 15:58:16;;;;;;;;;;;;;;;;;;5094142;28;19908;-77
2023/10/14 16:00:47;;;;;;;;;;;;;;;;;;5094091;28;20046;-77
2023/10/14 16:03:15;;;;;;;;;;;;;;;;;;5094071;28;19908;-76
2023/10/14 16:05:44;;;;;;;;;;;;;;;;;;5094016;28;19908;-76
2023/10/14 16:08:16;;;;;;;;;;;;;;;;;;5093872;28;19950;-75
2023/10/14 16:15:47;;;;;;;;;;;;;;;;;;5132923;27;20311;-74
2023/10/14 16:18:13;;;;;;;;;;;;;;;;;;5131974;28;19912;-76
2023/10/14 16:22:21;;;;;;;;;;;;;;;;;;5112171;27;19916;-75
2023/10/14 16:24:47;;;;;;;;;;;;;;;;;;5111436;28;20006;-75
2023/10/14 16:27:13;;;;;;;;;;;;;;;;;;5111695;28;19954;-75
2023/10/14 16:35:44;;;;;;;;;;;;;;;;;;5091891;27;19922;-76
2023/10/14 16:38:10;;;;;;;;;;;;;;;;;;5090933;28;19995;-75
2023/10/14 16:40:36;;;;;;;;;;;;;;;;;;5091322;28;19909;-76
2023/10/14 16:45:36;;;;;;;;;;;;;;;;;;5173651;27;20357;-74
2023/10/14 16:48:07;;;;;;;;;;;;;;;;;;5173795;27;20358;-75
2023/10/14 16:51:26;;;;;;;;;;;;;;;;;;5112358;27;19916;-75
2023/10/14 16:55:52;;;;;;;;;;;;;;;;;;5091654;27;19923;-75
2023/10/14 16:59:23;;;;;;;;;;;;;;;;;;5111474;27;19916;-76
2023/10/14 17:02:53;;;;;;;;;;;;;;;;;;5157255;27;20006;-74
2023/10/14 17:06:00;;;;;;;;;;;;;;;;;;5111897;27;19916;-76
2023/10/14 17:10:03;;;;;;;;;;;;;;;;;;5112265;27;19919;-76
2023/10/14 17:13:00;;;;;;;;;;;;;;;;;;5111892;27;19919;-75
2023/10/14 17:15:29;;;;;;;;;;;;;;;;;;5110327;28;19965;-75
2023/10/14 17:20:12;;;;;;;;;;;;;;;;;;5111479;27;19922;-76
2023/10/14 17:23:26;;;;;;;;;;;;;;;;;;5111816;27;20409;-75
2023/10/14 17:25:52;;;;;;;;;;;;;;;;;;5111598;28;19954;-75
2023/10/14 17:30:02;;;;;;;;;;;;;;;;;;5112537;27;19918;-75
2023/10/14 17:32:28;;;;;;;;;;;;;;;;;;5111742;28;19916;-76
2023/10/14 17:34:54;;;;;;;;;;;;;;;;;;5111310;28;19915;-75
2023/10/14 17:37:20;;;;;;;;;;;;;;;;;;5111751;28;19915;-75
2023/10/14 17:41:37;;;;;;;;;;;;;;;;;;5091089;27;19923;-76
2023/10/14 17:44:03;;;;;;;;;;;;;;;;;;5091366;28;20008;-75
2023/10/14 17:46:34;;;;;;;;;;;;;;;;;;5091279;28;19909;-75
2023/10/14 17:53:25;;;;;;;;;;;;;;;;;;5091487;27;19917;-76